sensor_id;sensor_type;location;lat;lon;timestamp;temperature;humidity
8593;DHT22;4334;49.982;8.398;2022-10-31T00:01:21;10.20;99.90
8593;DHT22;4334;49.982;8.398;2022-10-31T00:03:49;10.20;99.90
8593;DHT22;4334;49.982;8.398;2022-10-31T00:06:16;13.70;99.90
8593;DHT22;4334;49.982;8.398;2022-10-31T00:08:44;10.40;99.90
8593;DHT22;4334;49.982;8.398;2022-10-31T00:11:11;10.40;99.90
8593;DHT22;4334;49.982;8.398;2022-10-31T00:13:39;10.90;99.90
8593;DHT22;4334;49.982;8.398;2022-10-31T00:16:14;10.40;99.90
8593;DHT22;4334;49.982;8.398;2022-10-31T00:18:41;10.50;99.90
8593;DHT22;4334;49.982;8.398;2022-10-31T00:21:10;10.50;99.90
8593;DHT22;4334;49.982;8.398;2022-10-31T00:23:37;10.50;99.90
8593;DHT22;4334;49.982;8.398;2022-10-31T00:26:04;10.50;99.90
8593;DHT22;4334;49.982;8.398;2022-10-31T00:28:33;12.00;99.90
8593;DHT22;4334;49.982;8.398;2022-10-31T00:31:06;10.60;99.90
8593;DHT22;4334;49.982;8.398;2022-10-31T00:33:34;10.50;99.90
8593;DHT22;4334;49.982;8.398;2022-10-31T00:36:02;10.60;99.90
8593;DHT22;4334;49.982;8.398;2022-10-31T00:38:29;10.60;99.90
8593;DHT22;4334;49.982;8.398;2022-10-31T00:40:56;10.50;99.90
8593;DHT22;4334;49.982;8.398;2022-10-31T00:43:25;10.40;99.90
8593;DHT22;4334;49.982;8.398;2022-10-31T00:45:52;10.30;99.90
8593;DHT22;4334;49.982;8.398;2022-10-31T00:48:20;10.30;99.90
8593;DHT22;4334;49.982;8.398;2022-10-31T00:50:47;10.20;99.90
8593;DHT22;4334;49.982;8.398;2022-10-31T00:53:14;11.30;99.90
8593;DHT22;4334;49.982;8.398;2022-10-31T00:55:41;12.60;99.90
8593;DHT22;4334;49.982;8.398;2022-10-31T00:58:08;10.50;99.90
8593;DHT22;4334;49.982;8.398;2022-10-31T01:00:35;10.60;99.90
8593;DHT22;4334;49.982;8.398;2022-10-31T01:03:02;10.80;99.90
8593;DHT22;4334;49.982;8.398;2022-10-31T01:05:31;10.90;99.90
8593;DHT22;4334;49.982;8.398;2022-10-31T01:07:58;12.70;99.90
8593;DHT22;4334;49.982;8.398;2022-10-31T01:10:25;11.00;99.90
8593;DHT22;4334;49.982;8.398;2022-10-31T01:12:52;10.80;99.90
8593;DHT22;4334;49.982;8.398;2022-10-31T01:15:21;10.70;99.90
8593;DHT22;4334;49.982;8.398;2022-10-31T01:17:48;10.70;99.90
8593;DHT22;4334;49.982;8.398;2022-10-31T01:20:17;12.80;99.90
8593;DHT22;4334;49.982;8.398;2022-10-31T01:22:45;10.90;99.90
8593;DHT22;4334;49.982;8.398;2022-10-31T01:25:12;10.90;99.90
8593;DHT22;4334;49.982;8.398;2022-10-31T01:27:39;10.80;99.90
8593;DHT22;4334;49.982;8.398;2022-10-31T01:30:06;10.80;99.90
8593;DHT22;4334;49.982;8.398;2022-10-31T01:32:33;10.80;99.90
8593;DHT22;4334;49.982;8.398;2022-10-31T01:35:00;10.70;99.90
8593;DHT22;4334;49.982;8.398;2022-10-31T01:37:30;10.60;99.90
8593;DHT22;4334;49.982;8.398;2022-10-31T01:40:02;10.60;99.90
8593;DHT22;4334;49.982;8.398;2022-10-31T01:42:30;10.60;99.90
8593;DHT22;4334;49.982;8.398;2022-10-31T01:44:59;10.60;99.90
8593;DHT22;4334;49.982;8.398;2022-10-31T01:47:40;10.50;99.90
8593;DHT22;4334;49.982;8.398;2022-10-31T01:50:16;10.50;99.90
8593;DHT22;4334;49.982;8.398;2022-10-31T01:52:49;10.30;99.90
8593;DHT22;4334;49.982;8.398;2022-10-31T01:55:22;10.60;99.90
8593;DHT22;4334;49.982;8.398;2022-10-31T01:57:53;10.10;99.90
8593;DHT22;4334;49.982;8.398;2022-10-31T02:00:21;10.10;99.90
8593;DHT22;4334;49.982;8.398;2022-10-31T02:02:50;10.10;99.90
8593;DHT22;4334;49.982;8.398;2022-10-31T02:05:19;10.00;99.90
8593;DHT22;4334;49.982;8.398;2022-10-31T02:07:53;10.00;99.90
8593;DHT22;4334;49.982;8.398;2022-10-31T02:10:23;10.00;99.90
8593;DHT22;4334;49.982;8.398;2022-10-31T02:12:52;10.00;99.90
8593;DHT22;4334;49.982;8.398;2022-10-31T02:15:19;9.90;99.90
8593;DHT22;4334;49.982;8.398;2022-10-31T02:17:46;9.90;99.90
8593;DHT22;4334;49.982;8.398;2022-10-31T02:20:16;9.90;99.90
8593;DHT22;4334;49.982;8.398;2022-10-31T02:26:07;9.90;99.90
8593;DHT22;4334;49.982;8.398;2022-10-31T02:31:53;9.90;99.90
8593;DHT22;4334;49.982;8.398;2022-10-31T02:34:26;10.10;99.90
8593;DHT22;4334;49.982;8.398;2022-10-31T02:36:58;9.90;99.90
8593;DHT22;4334;49.982;8.398;2022-10-31T02:39:32;9.80;99.90
8593;DHT22;4334;49.982;8.398;2022-10-31T02:42:06;9.80;99.90
8593;DHT22;4334;49.982;8.398;2022-10-31T02:44:37;9.80;99.90
8593;DHT22;4334;49.982;8.398;2022-10-31T02:47:11;9.90;99.90
8593;DHT22;4334;49.982;8.398;2022-10-31T02:49:42;9.90;99.90
8593;DHT22;4334;49.982;8.398;2022-10-31T02:52:17;9.90;99.90
8593;DHT22;4334;49.982;8.398;2022-10-31T02:54:46;10.00;99.90
8593;DHT22;4334;49.982;8.398;2022-10-31T02:57:18;11.40;99.90
8593;DHT22;4334;49.982;8.398;2022-10-31T02:59:49;9.90;99.90
8593;DHT22;4334;49.982;8.398;2022-10-31T03:02:46;9.80;99.90
8593;DHT22;4334;49.982;8.398;2022-10-31T03:05:49;9.70;99.90
8593;DHT22;4334;49.982;8.398;2022-10-31T03:08:25;9.70;99.90
8593;DHT22;4334;49.982;8.398;2022-10-31T03:10:58;9.80;99.90
8593;DHT22;4334;49.982;8.398;2022-10-31T03:13:34;9.80;99.90
8593;DHT22;4334;49.982;8.398;2022-10-31T03:16:07;9.60;99.90
8593;DHT22;4334;49.982;8.398;2022-10-31T03:18:40;9.60;99.90
8593;DHT22;4334;49.982;8.398;2022-10-31T03:21:10;9.50;99.90
8593;DHT22;4334;49.982;8.398;2022-10-31T03:23:39;9.50;99.90
8593;DHT22;4334;49.982;8.398;2022-10-31T03:26:08;9.40;99.90
8593;DHT22;4334;49.982;8.398;2022-10-31T03:28:43;9.40;99.90
8593;DHT22;4334;49.982;8.398;2022-10-31T03:31:15;9.40;99.90
8593;DHT22;4334;49.982;8.398;2022-10-31T03:33:46;9.40;99.90
8593;DHT22;4334;49.982;8.398;2022-10-31T03:36:16;9.40;99.90
8593;DHT22;4334;49.982;8.398;2022-10-31T03:38:45;9.40;99.90
8593;DHT22;4334;49.982;8.398;2022-10-31T03:41:16;9.40;99.90
8593;DHT22;4334;49.982;8.398;2022-10-31T03:43:59;9.30;99.90
8593;DHT22;4334;49.982;8.398;2022-10-31T03:46:29;9.30;99.90
8593;DHT22;4334;49.982;8.398;2022-10-31T03:48:58;9.30;99.90
8593;DHT22;4334;49.982;8.398;2022-10-31T03:51:27;9.30;99.90
8593;DHT22;4334;49.982;8.398;2022-10-31T03:54:02;13.00;99.90
8593;DHT22;4334;49.982;8.398;2022-10-31T03:56:35;9.30;99.90
8593;DHT22;4334;49.982;8.398;2022-10-31T03:59:07;9.30;99.90
8593;DHT22;4334;49.982;8.398;2022-10-31T04:01:39;9.30;99.90
8593;DHT22;4334;49.982;8.398;2022-10-31T04:04:10;9.30;99.90
8593;DHT22;4334;49.982;8.398;2022-10-31T04:06:39;9.40;99.90
8593;DHT22;4334;49.982;8.398;2022-10-31T04:09:08;9.30;99.90
8593;DHT22;4334;49.982;8.398;2022-10-31T04:11:38;9.30;99.90
8593;DHT22;4334;49.982;8.398;2022-10-31T04:14:08;9.30;99.90
8593;DHT22;4334;49.982;8.398;2022-10-31T04:16:39;9.20;99.90
8593;DHT22;4334;49.982;8.398;2022-10-31T04:19:09;9.20;99.90
8593;DHT22;4334;49.982;8.398;2022-10-31T04:21:39;9.20;99.90
8593;DHT22;4334;49.982;8.398;2022-10-31T04:24:11;9.30;99.90
8593;DHT22;4334;49.982;8.398;2022-10-31T04:26:38;9.30;99.90
8593;DHT22;4334;49.982;8.398;2022-10-31T04:29:04;9.40;99.90
8593;DHT22;4334;49.982;8.398;2022-10-31T04:31:31;9.30;99.90
8593;DHT22;4334;49.982;8.398;2022-10-31T04:33:58;9.20;99.90
8593;DHT22;4334;49.982;8.398;2022-10-31T04:36:26;9.20;99.90
8593;DHT22;4334;49.982;8.398;2022-10-31T04:38:53;9.10;99.90
8593;DHT22;4334;49.982;8.398;2022-10-31T04:41:20;9.10;99.90
8593;DHT22;4334;49.982;8.398;2022-10-31T04:43:46;9.10;99.90
8593;DHT22;4334;49.982;8.398;2022-10-31T04:46:14;9.10;99.90
8593;DHT22;4334;49.982;8.398;2022-10-31T04:48:40;9.10;99.90
8593;DHT22;4334;49.982;8.398;2022-10-31T04:51:07;10.10;99.90
8593;DHT22;4334;49.982;8.398;2022-10-31T04:53:35;9.20;99.90
8593;DHT22;4334;49.982;8.398;2022-10-31T04:56:02;9.10;99.90
8593;DHT22;4334;49.982;8.398;2022-10-31T04:58:29;9.10;99.90
8593;DHT22;4334;49.982;8.398;2022-10-31T05:00:56;9.10;99.90
8593;DHT22;4334;49.982;8.398;2022-10-31T05:03:23;9.10;99.90
8593;DHT22;4334;49.982;8.398;2022-10-31T05:05:50;9.00;99.90
8593;DHT22;4334;49.982;8.398;2022-10-31T05:08:17;9.10;99.90
8593;DHT22;4334;49.982;8.398;2022-10-31T05:10:45;9.20;99.90
8593;DHT22;4334;49.982;8.398;2022-10-31T05:13:12;9.20;99.90
8593;DHT22;4334;49.982;8.398;2022-10-31T05:15:40;9.20;99.90
8593;DHT22;4334;49.982;8.398;2022-10-31T05:18:07;9.20;99.90
8593;DHT22;4334;49.982;8.398;2022-10-31T05:20:34;9.30;99.90
8593;DHT22;4334;49.982;8.398;2022-10-31T05:23:01;9.60;99.90
8593;DHT22;4334;49.982;8.398;2022-10-31T05:25:28;9.40;99.90
8593;DHT22;4334;49.982;8.398;2022-10-31T05:27:57;9.60;99.90
8593;DHT22;4334;49.982;8.398;2022-10-31T05:30:25;8.70;99.90
8593;DHT22;4334;49.982;8.398;2022-10-31T05:32:53;9.70;99.90
8593;DHT22;4334;49.982;8.398;2022-10-31T05:35:21;9.60;99.90
8593;DHT22;4334;49.982;8.398;2022-10-31T05:37:48;9.60;99.90
8593;DHT22;4334;49.982;8.398;2022-10-31T05:40:17;9.70;99.90
8593;DHT22;4334;49.982;8.398;2022-10-31T05:42:44;9.60;99.90
8593;DHT22;4334;49.982;8.398;2022-10-31T05:45:14;9.70;99.90
8593;DHT22;4334;49.982;8.398;2022-10-31T05:47:41;9.80;99.90
8593;DHT22;4334;49.982;8.398;2022-10-31T05:50:09;13.50;99.90
8593;DHT22;4334;49.982;8.398;2022-10-31T05:52:36;10.00;99.90
8593;DHT22;4334;49.982;8.398;2022-10-31T05:55:04;10.10;99.90
8593;DHT22;4334;49.982;8.398;2022-10-31T05:57:32;10.10;99.90
8593;DHT22;4334;49.982;8.398;2022-10-31T05:59:59;10.10;99.90
8593;DHT22;4334;49.982;8.398;2022-10-31T06:02:27;10.40;99.90
8593;DHT22;4334;49.982;8.398;2022-10-31T06:04:58;10.00;99.90
8593;DHT22;4334;49.982;8.398;2022-10-31T06:07:24;10.00;99.90
8593;DHT22;4334;49.982;8.398;2022-10-31T06:09:54;13.50;99.90
8593;DHT22;4334;49.982;8.398;2022-10-31T06:12:21;10.00;99.90
8593;DHT22;4334;49.982;8.398;2022-10-31T06:14:48;12.70;99.90
8593;DHT22;4334;49.982;8.398;2022-10-31T06:17:15;10.10;99.90
8593;DHT22;4334;49.982;8.398;2022-10-31T06:19:43;10.10;99.90
8593;DHT22;4334;49.982;8.398;2022-10-31T06:22:10;10.20;99.90
8593;DHT22;4334;49.982;8.398;2022-10-31T06:24:37;10.20;99.90
8593;DHT22;4334;49.982;8.398;2022-10-31T06:27:04;11.80;99.90
8593;DHT22;4334;49.982;8.398;2022-10-31T06:29:32;10.20;99.90
8593;DHT22;4334;49.982;8.398;2022-10-31T06:31:58;10.30;99.90
8593;DHT22;4334;49.982;8.398;2022-10-31T06:34:25;10.30;99.90
8593;DHT22;4334;49.982;8.398;2022-10-31T06:36:53;10.90;99.90
8593;DHT22;4334;49.982;8.398;2022-10-31T06:39:20;10.40;99.90
8593;DHT22;4334;49.982;8.398;2022-10-31T06:41:49;10.40;99.90
8593;DHT22;4334;49.982;8.398;2022-10-31T06:44:16;14.50;99.90
8593;DHT22;4334;49.982;8.398;2022-10-31T06:46:45;10.70;99.90
8593;DHT22;4334;49.982;8.398;2022-10-31T06:49:12;10.80;99.90
8593;DHT22;4334;49.982;8.398;2022-10-31T06:51:39;10.90;99.90
8593;DHT22;4334;49.982;8.398;2022-10-31T06:54:07;11.10;99.90
8593;DHT22;4334;49.982;8.398;2022-10-31T06:56:34;11.40;99.90
8593;DHT22;4334;49.982;8.398;2022-10-31T06:59:01;11.50;99.90
8593;DHT22;4334;49.982;8.398;2022-10-31T07:01:28;11.80;99.90
8593;DHT22;4334;49.982;8.398;2022-10-31T07:03:54;11.90;99.90
8593;DHT22;4334;49.982;8.398;2022-10-31T07:06:21;12.20;99.90
8593;DHT22;4334;49.982;8.398;2022-10-31T07:08:48;12.20;99.90
8593;DHT22;4334;49.982;8.398;2022-10-31T07:11:16;12.20;99.90
8593;DHT22;4334;49.982;8.398;2022-10-31T07:13:44;12.10;99.90
8593;DHT22;4334;49.982;8.398;2022-10-31T07:16:10;12.00;99.90
8593;DHT22;4334;49.982;8.398;2022-10-31T07:18:39;12.00;99.90
8593;DHT22;4334;49.982;8.398;2022-10-31T07:21:06;12.10;99.90
8593;DHT22;4334;49.982;8.398;2022-10-31T07:23:35;12.30;99.90
8593;DHT22;4334;49.982;8.398;2022-10-31T07:26:04;12.60;99.90
8593;DHT22;4334;49.982;8.398;2022-10-31T07:28:56;12.70;99.90
8593;DHT22;4334;49.982;8.398;2022-10-31T07:31:25;12.90;99.90
8593;DHT22;4334;49.982;8.398;2022-10-31T07:34:13;15.60;99.90
8593;DHT22;4334;49.982;8.398;2022-10-31T07:37:18;13.20;99.90
8593;DHT22;4334;49.982;8.398;2022-10-31T07:39:45;13.60;99.90
8593;DHT22;4334;49.982;8.398;2022-10-31T07:42:12;14.20;99.90
8593;DHT22;4334;49.982;8.398;2022-10-31T07:44:41;14.50;99.90
8593;DHT22;4334;49.982;8.398;2022-10-31T07:47:09;14.70;99.90
8593;DHT22;4334;49.982;8.398;2022-10-31T07:49:36;14.80;99.90
8593;DHT22;4334;49.982;8.398;2022-10-31T07:52:03;14.90;99.90
8593;DHT22;4334;49.982;8.398;2022-10-31T07:54:29;14.90;99.90
8593;DHT22;4334;49.982;8.398;2022-10-31T07:56:56;15.10;99.90
8593;DHT22;4334;49.982;8.398;2022-10-31T07:59:23;15.50;99.90
8593;DHT22;4334;49.982;8.398;2022-10-31T08:01:52;15.60;99.90
8593;DHT22;4334;49.982;8.398;2022-10-31T08:04:19;15.50;99.90
8593;DHT22;4334;49.982;8.398;2022-10-31T08:06:46;15.50;99.90
8593;DHT22;4334;49.982;8.398;2022-10-31T08:09:13;15.50;99.90
8593;DHT22;4334;49.982;8.398;2022-10-31T08:11:40;15.40;99.90
8593;DHT22;4334;49.982;8.398;2022-10-31T08:14:07;15.70;99.90
8593;DHT22;4334;49.982;8.398;2022-10-31T08:16:34;15.60;99.90
8593;DHT22;4334;49.982;8.398;2022-10-31T08:19:02;15.70;99.90
8593;DHT22;4334;49.982;8.398;2022-10-31T08:21:29;15.00;99.90
8593;DHT22;4334;49.982;8.398;2022-10-31T08:23:56;14.80;99.90
8593;DHT22;4334;49.982;8.398;2022-10-31T08:26:24;14.50;99.90
8593;DHT22;4334;49.982;8.398;2022-10-31T08:28:50;14.40;99.90
8593;DHT22;4334;49.982;8.398;2022-10-31T08:31:20;14.40;99.90
8593;DHT22;4334;49.982;8.398;2022-10-31T08:33:47;14.40;99.90
8593;DHT22;4334;49.982;8.398;2022-10-31T08:36:15;14.40;99.90
8593;DHT22;4334;49.982;8.398;2022-10-31T08:38:42;14.30;99.90
8593;DHT22;4334;49.982;8.398;2022-10-31T08:41:09;14.30;99.90
8593;DHT22;4334;49.982;8.398;2022-10-31T08:43:36;14.30;99.90
8593;DHT22;4334;49.982;8.398;2022-10-31T08:46:03;14.40;99.90
8593;DHT22;4334;49.982;8.398;2022-10-31T08:48:29;14.50;99.90
8593;DHT22;4334;49.982;8.398;2022-10-31T08:50:58;14.60;99.90
8593;DHT22;4334;49.982;8.398;2022-10-31T08:53:30;14.70;99.90
8593;DHT22;4334;49.982;8.398;2022-10-31T08:55:57;14.70;99.90
8593;DHT22;4334;49.982;8.398;2022-10-31T08:58:24;14.90;99.90
8593;DHT22;4334;49.982;8.398;2022-10-31T09:00:53;15.10;99.90
8593;DHT22;4334;49.982;8.398;2022-10-31T09:03:22;15.40;99.90
8593;DHT22;4334;49.982;8.398;2022-10-31T09:05:50;15.60;99.90
8593;DHT22;4334;49.982;8.398;2022-10-31T09:08:18;15.70;99.90
8593;DHT22;4334;49.982;8.398;2022-10-31T09:10:46;16.30;99.90
8593;DHT22;4334;49.982;8.398;2022-10-31T09:13:14;16.20;99.90
8593;DHT22;4334;49.982;8.398;2022-10-31T09:15:43;16.10;99.90
8593;DHT22;4334;49.982;8.398;2022-10-31T09:18:11;16.40;99.90
8593;DHT22;4334;49.982;8.398;2022-10-31T09:20:39;16.40;99.90
8593;DHT22;4334;49.982;8.398;2022-10-31T09:23:08;16.40;99.90
8593;DHT22;4334;49.982;8.398;2022-10-31T09:25:36;16.30;99.90
8593;DHT22;4334;49.982;8.398;2022-10-31T09:28:07;16.60;99.90
8593;DHT22;4334;49.982;8.398;2022-10-31T09:30:35;16.70;99.90
8593;DHT22;4334;49.982;8.398;2022-10-31T09:33:04;16.60;99.90
8593;DHT22;4334;49.982;8.398;2022-10-31T09:35:34;16.70;99.90
8593;DHT22;4334;49.982;8.398;2022-10-31T09:38:02;16.70;99.90
8593;DHT22;4334;49.982;8.398;2022-10-31T09:40:32;16.70;99.90
8593;DHT22;4334;49.982;8.398;2022-10-31T09:43:11;16.90;99.90
8593;DHT22;4334;49.982;8.398;2022-10-31T09:45:45;16.90;99.90
8593;DHT22;4334;49.982;8.398;2022-10-31T09:48:27;16.90;99.90
8593;DHT22;4334;49.982;8.398;2022-10-31T09:50:58;16.80;99.90
8593;DHT22;4334;49.982;8.398;2022-10-31T09:53:32;16.90;99.90
8593;DHT22;4334;49.982;8.398;2022-10-31T09:56:01;17.10;99.90
8593;DHT22;4334;49.982;8.398;2022-10-31T09:58:31;17.00;99.90
8593;DHT22;4334;49.982;8.398;2022-10-31T10:01:03;17.10;99.90
8593;DHT22;4334;49.982;8.398;2022-10-31T10:03:34;17.10;99.90
8593;DHT22;4334;49.982;8.398;2022-10-31T10:06:09;17.10;99.90
8593;DHT22;4334;49.982;8.398;2022-10-31T10:08:38;17.40;99.90
8593;DHT22;4334;49.982;8.398;2022-10-31T10:11:19;17.70;99.90
8593;DHT22;4334;49.982;8.398;2022-10-31T10:14:12;19.00;99.90
8593;DHT22;4334;49.982;8.398;2022-10-31T10:16:57;17.60;99.90
8593;DHT22;4334;49.982;8.398;2022-10-31T10:19:52;17.20;99.90
8593;DHT22;4334;49.982;8.398;2022-10-31T10:22:28;17.50;99.90
8593;DHT22;4334;49.982;8.398;2022-10-31T10:25:14;17.70;99.90
8593;DHT22;4334;49.982;8.398;2022-10-31T10:27:59;17.70;99.90
8593;DHT22;4334;49.982;8.398;2022-10-31T10:30:33;17.80;99.90
8593;DHT22;4334;49.982;8.398;2022-10-31T10:33:04;21.30;99.90
8593;DHT22;4334;49.982;8.398;2022-10-31T10:35:33;18.00;99.90
8593;DHT22;4334;49.982;8.398;2022-10-31T10:38:09;18.10;99.90
8593;DHT22;4334;49.982;8.398;2022-10-31T10:40:37;18.50;99.90
8593;DHT22;4334;49.982;8.398;2022-10-31T10:43:18;18.90;99.90
8593;DHT22;4334;49.982;8.398;2022-10-31T10:45:52;18.60;99.90
8593;DHT22;4334;49.982;8.398;2022-10-31T10:48:42;18.40;99.90
8593;DHT22;4334;49.982;8.398;2022-10-31T10:51:21;18.40;99.90
8593;DHT22;4334;49.982;8.398;2022-10-31T10:53:58;18.60;99.90
8593;DHT22;4334;49.982;8.398;2022-10-31T10:56:36;18.90;99.90
8593;DHT22;4334;49.982;8.398;2022-10-31T10:59:06;19.30;99.90
8593;DHT22;4334;49.982;8.398;2022-10-31T11:01:38;19.30;99.90
8593;DHT22;4334;49.982;8.398;2022-10-31T11:04:21;19.10;99.90
8593;DHT22;4334;49.982;8.398;2022-10-31T11:06:58;19.30;99.90
8593;DHT22;4334;49.982;8.398;2022-10-31T11:09:25;20.00;99.90
8593;DHT22;4334;49.982;8.398;2022-10-31T11:11:52;20.30;99.90
8593;DHT22;4334;49.982;8.398;2022-10-31T11:14:20;19.60;99.90
8593;DHT22;4334;49.982;8.398;2022-10-31T11:16:50;19.80;99.90
8593;DHT22;4334;49.982;8.398;2022-10-31T11:19:21;19.90;99.90
8593;DHT22;4334;49.982;8.398;2022-10-31T11:21:48;19.80;99.90
8593;DHT22;4334;49.982;8.398;2022-10-31T11:24:17;20.40;99.90
8593;DHT22;4334;49.982;8.398;2022-10-31T11:26:46;20.50;99.90
8593;DHT22;4334;49.982;8.398;2022-10-31T11:29:16;20.30;99.90
8593;DHT22;4334;49.982;8.398;2022-10-31T11:31:45;20.20;99.90
8593;DHT22;4334;49.982;8.398;2022-10-31T11:34:23;20.50;99.90
8593;DHT22;4334;49.982;8.398;2022-10-31T11:36:52;20.70;99.90
8593;DHT22;4334;49.982;8.398;2022-10-31T11:39:22;21.00;99.90
8593;DHT22;4334;49.982;8.398;2022-10-31T11:41:50;21.10;99.90
8593;DHT22;4334;49.982;8.398;2022-10-31T11:44:20;21.30;99.90
8593;DHT22;4334;49.982;8.398;2022-10-31T11:46:50;20.90;99.90
8593;DHT22;4334;49.982;8.398;2022-10-31T11:49:23;21.40;99.90
8593;DHT22;4334;49.982;8.398;2022-10-31T11:51:54;21.10;99.90
8593;DHT22;4334;49.982;8.398;2022-10-31T11:54:26;20.80;99.90
8593;DHT22;4334;49.982;8.398;2022-10-31T11:56:54;20.40;99.90
8593;DHT22;4334;49.982;8.398;2022-10-31T11:59:26;20.10;99.90
8593;DHT22;4334;49.982;8.398;2022-10-31T12:01:56;20.40;99.90
8593;DHT22;4334;49.982;8.398;2022-10-31T12:05:01;20.90;99.90
8593;DHT22;4334;49.982;8.398;2022-10-31T12:07:29;21.50;99.90
8593;DHT22;4334;49.982;8.398;2022-10-31T12:09:56;21.50;99.90
8593;DHT22;4334;49.982;8.398;2022-10-31T12:12:38;21.60;99.90
8593;DHT22;4334;49.982;8.398;2022-10-31T12:15:30;21.30;99.90
8593;DHT22;4334;49.982;8.398;2022-10-31T12:18:20;21.50;99.90
8593;DHT22;4334;49.982;8.398;2022-10-31T12:21:00;21.90;99.90
8593;DHT22;4334;49.982;8.398;2022-10-31T12:23:42;22.00;99.90
8593;DHT22;4334;49.982;8.398;2022-10-31T12:26:17;21.60;99.90
8593;DHT22;4334;49.982;8.398;2022-10-31T12:29:06;21.50;99.90
8593;DHT22;4334;49.982;8.398;2022-10-31T12:31:43;22.10;99.90
8593;DHT22;4334;49.982;8.398;2022-10-31T12:34:38;22.30;99.90
8593;DHT22;4334;49.982;8.398;2022-10-31T12:37:20;22.50;99.90
8593;DHT22;4334;49.982;8.398;2022-10-31T12:40:01;23.20;99.90
8593;DHT22;4334;49.982;8.398;2022-10-31T12:42:44;23.30;99.90
8593;DHT22;4334;49.982;8.398;2022-10-31T12:45:35;22.70;99.90
8593;DHT22;4334;49.982;8.398;2022-10-31T12:48:15;23.00;99.90
8593;DHT22;4334;49.982;8.398;2022-10-31T12:50:53;22.70;99.90
8593;DHT22;4334;49.982;8.398;2022-10-31T12:53:44;21.80;99.90
8593;DHT22;4334;49.982;8.398;2022-10-31T12:56:25;22.00;99.90
8593;DHT22;4334;49.982;8.398;2022-10-31T12:58:56;21.70;99.90
8593;DHT22;4334;49.982;8.398;2022-10-31T13:01:29;21.00;99.90
8593;DHT22;4334;49.982;8.398;2022-10-31T13:04:02;20.90;99.90
8593;DHT22;4334;49.982;8.398;2022-10-31T13:06:33;23.70;99.90
8593;DHT22;4334;49.982;8.398;2022-10-31T13:09:05;20.70;99.90
8593;DHT22;4334;49.982;8.398;2022-10-31T13:11:36;20.60;99.90
8593;DHT22;4334;49.982;8.398;2022-10-31T13:14:07;20.40;99.90
8593;DHT22;4334;49.982;8.398;2022-10-31T13:16:38;20.20;99.90
8593;DHT22;4334;49.982;8.398;2022-10-31T13:19:11;20.10;99.90
8593;DHT22;4334;49.982;8.398;2022-10-31T13:21:42;19.90;99.90
8593;DHT22;4334;49.982;8.398;2022-10-31T13:24:15;19.80;99.90
8593;DHT22;4334;49.982;8.398;2022-10-31T13:26:46;19.70;99.90
8593;DHT22;4334;49.982;8.398;2022-10-31T13:29:20;19.70;99.90
8593;DHT22;4334;49.982;8.398;2022-10-31T13:31:49;19.60;99.90
8593;DHT22;4334;49.982;8.398;2022-10-31T13:34:25;22.00;99.90
8593;DHT22;4334;49.982;8.398;2022-10-31T13:36:59;19.50;99.90
8593;DHT22;4334;49.982;8.398;2022-10-31T13:39:39;20.00;99.90
8593;DHT22;4334;49.982;8.398;2022-10-31T13:42:15;22.50;99.90
8593;DHT22;4334;49.982;8.398;2022-10-31T13:44:45;22.80;99.90
8593;DHT22;4334;49.982;8.398;2022-10-31T13:47:25;19.10;99.90
8593;DHT22;4334;49.982;8.398;2022-10-31T13:50:03;18.90;99.90
8593;DHT22;4334;49.982;8.398;2022-10-31T13:52:30;18.90;99.90
8593;DHT22;4334;49.982;8.398;2022-10-31T13:54:58;18.80;99.90
8593;DHT22;4334;49.982;8.398;2022-10-31T13:57:33;18.80;99.90
8593;DHT22;4334;49.982;8.398;2022-10-31T14:00:05;18.80;99.90
8593;DHT22;4334;49.982;8.398;2022-10-31T14:02:35;18.60;99.90
8593;DHT22;4334;49.982;8.398;2022-10-31T14:05:05;18.60;99.90
8593;DHT22;4334;49.982;8.398;2022-10-31T14:07:33;18.60;99.90
8593;DHT22;4334;49.982;8.398;2022-10-31T14:10:04;18.50;99.90
8593;DHT22;4334;49.982;8.398;2022-10-31T14:12:35;18.50;99.90
8593;DHT22;4334;49.982;8.398;2022-10-31T14:15:12;18.60;99.90
8593;DHT22;4334;49.982;8.398;2022-10-31T14:17:46;18.60;99.90
8593;DHT22;4334;49.982;8.398;2022-10-31T14:20:31;18.70;99.90
8593;DHT22;4334;49.982;8.398;2022-10-31T14:22:58;18.80;99.90
8593;DHT22;4334;49.982;8.398;2022-10-31T14:25:29;19.10;99.90
8593;DHT22;4334;49.982;8.398;2022-10-31T14:27:57;19.40;99.90
8593;DHT22;4334;49.982;8.398;2022-10-31T14:30:26;22.60;99.90
8593;DHT22;4334;49.982;8.398;2022-10-31T14:32:57;19.80;99.90
8593;DHT22;4334;49.982;8.398;2022-10-31T14:35:34;19.90;99.90
8593;DHT22;4334;49.982;8.398;2022-10-31T14:38:25;20.10;99.90
8593;DHT22;4334;49.982;8.398;2022-10-31T14:41:20;20.30;99.90
8593;DHT22;4334;49.982;8.398;2022-10-31T14:44:16;20.10;99.90
8593;DHT22;4334;49.982;8.398;2022-10-31T14:46:54;19.90;99.90
8593;DHT22;4334;49.982;8.398;2022-10-31T14:49:39;19.70;99.90
8593;DHT22;4334;49.982;8.398;2022-10-31T14:52:13;19.40;99.90
8593;DHT22;4334;49.982;8.398;2022-10-31T14:54:45;19.10;99.90
8593;DHT22;4334;49.982;8.398;2022-10-31T14:57:25;18.80;99.90
8593;DHT22;4334;49.982;8.398;2022-10-31T14:59:55;18.50;99.90
8593;DHT22;4334;49.982;8.398;2022-10-31T15:02:26;19.00;99.90
8593;DHT22;4334;49.982;8.398;2022-10-31T15:04:55;17.90;99.90
8593;DHT22;4334;49.982;8.398;2022-10-31T15:07:25;17.80;99.90
8593;DHT22;4334;49.982;8.398;2022-10-31T15:09:56;17.70;99.90
8593;DHT22;4334;49.982;8.398;2022-10-31T15:12:27;16.10;99.90
8593;DHT22;4334;49.982;8.398;2022-10-31T15:14:55;17.40;99.90
8593;DHT22;4334;49.982;8.398;2022-10-31T15:17:24;17.30;99.90
8593;DHT22;4334;49.982;8.398;2022-10-31T15:19:52;17.20;99.90
8593;DHT22;4334;49.982;8.398;2022-10-31T15:22:23;17.10;99.90
8593;DHT22;4334;49.982;8.398;2022-10-31T15:24:50;17.00;99.90
8593;DHT22;4334;49.982;8.398;2022-10-31T15:27:22;17.10;99.90
8593;DHT22;4334;49.982;8.398;2022-10-31T15:29:52;18.30;99.90
8593;DHT22;4334;49.982;8.398;2022-10-31T15:32:22;16.80;99.90
8593;DHT22;4334;49.982;8.398;2022-10-31T15:34:50;16.80;99.90
8593;DHT22;4334;49.982;8.398;2022-10-31T15:37:18;16.70;99.90
8593;DHT22;4334;49.982;8.398;2022-10-31T15:39:46;20.10;99.90
8593;DHT22;4334;49.982;8.398;2022-10-31T15:42:18;16.80;99.90
8593;DHT22;4334;49.982;8.398;2022-10-31T15:44:49;16.90;99.90
8593;DHT22;4334;49.982;8.398;2022-10-31T15:47:19;16.90;99.90
8593;DHT22;4334;49.982;8.398;2022-10-31T15:49:49;16.80;99.90
8593;DHT22;4334;49.982;8.398;2022-10-31T15:52:28;19.50;99.90
8593;DHT22;4334;49.982;8.398;2022-10-31T15:54:59;16.80;99.90
8593;DHT22;4334;49.982;8.398;2022-10-31T15:57:27;16.90;99.90
8593;DHT22;4334;49.982;8.398;2022-10-31T15:59:54;17.00;99.90
8593;DHT22;4334;49.982;8.398;2022-10-31T16:02:24;17.00;99.90
8593;DHT22;4334;49.982;8.398;2022-10-31T16:04:54;17.00;99.90
8593;DHT22;4334;49.982;8.398;2022-10-31T16:07:22;17.00;99.90
8593;DHT22;4334;49.982;8.398;2022-10-31T16:09:54;17.10;99.90
8593;DHT22;4334;49.982;8.398;2022-10-31T16:12:23;17.00;99.90
8593;DHT22;4334;49.982;8.398;2022-10-31T16:14:51;16.90;99.90
8593;DHT22;4334;49.982;8.398;2022-10-31T16:17:24;16.90;99.90
8593;DHT22;4334;49.982;8.398;2022-10-31T16:19:55;16.80;99.90
8593;DHT22;4334;49.982;8.398;2022-10-31T16:22:26;16.60;99.90
8593;DHT22;4334;49.982;8.398;2022-10-31T16:24:59;16.50;99.90
8593;DHT22;4334;49.982;8.398;2022-10-31T16:27:29;16.50;99.90
8593;DHT22;4334;49.982;8.398;2022-10-31T16:29:58;16.50;99.90
8593;DHT22;4334;49.982;8.398;2022-10-31T16:32:53;16.50;99.90
8593;DHT22;4334;49.982;8.398;2022-10-31T16:35:26;16.50;99.90
8593;DHT22;4334;49.982;8.398;2022-10-31T16:37:53;16.50;99.90